createdAt,value
2019-06-10T00:01:28.462Z,17.23
2019-06-10T00:04:02.628Z,17.23
2019-06-10T00:06:32.782Z,17.19
2019-06-10T00:09:06.421Z,17.14
2019-06-10T00:11:37.400Z,17.13
2019-06-10T00:14:10.760Z,17.09
2019-06-10T00:16:41.742Z,17.02
2019-06-10T00:19:13.062Z,17.01
2019-06-10T00:21:44.302Z,16.93
2019-06-10T00:24:15.933Z,16.77
2019-06-10T00:26:47.252Z,16.79
2019-06-10T00:29:18.552Z,16.71
2019-06-10T00:31:50.803Z,16.65
2019-06-10T00:34:22.295Z,16.64
2019-06-10T00:36:53.702Z,16.58
2019-06-10T00:39:24.813Z,16.53
2019-06-10T00:41:56.182Z,16.53
2019-06-10T00:44:27.513Z,16.55
2019-06-10T00:47:00.092Z,16.60
2019-06-10T00:49:31.750Z,16.66
2019-06-10T00:52:04.357Z,16.74
2019-06-10T00:54:36.152Z,16.79
2019-06-10T00:57:07.822Z,16.91
2019-06-10T00:59:41.258Z,16.96
2019-06-10T01:02:14.022Z,16.99
2019-06-10T01:04:45.273Z,17.00
2019-06-10T01:07:16.904Z,17.02
2019-06-10T01:09:48.192Z,17.08
2019-06-10T01:12:21.117Z,17.08
2019-06-10T01:14:52.554Z,17.10
2019-06-10T01:17:24.132Z,17.13
2019-06-10T01:19:55.552Z,17.16
2019-06-10T01:22:28.232Z,17.21
2019-06-10T01:25:01.679Z,17.22
2019-06-10T01:27:33.072Z,17.19
2019-06-10T01:30:10.278Z,17.18
2019-06-10T01:32:37.763Z,17.15
2019-06-10T01:35:11.529Z,17.11
2019-06-10T01:37:42.512Z,17.09
2019-06-10T01:40:16.363Z,17.05
2019-06-10T01:42:47.709Z,17.07
2019-06-10T01:45:21.121Z,17.08
2019-06-10T01:47:52.202Z,17.07
2019-06-10T01:50:26.582Z,17.08
2019-06-10T01:52:57.939Z,17.07
2019-06-10T01:55:31.205Z,17.07
2019-06-10T01:58:02.793Z,17.04
2019-06-10T02:00:44.303Z,17.02
2019-06-10T02:03:18.119Z,17.02
2019-06-10T02:05:51.468Z,17.00
2019-06-10T02:08:22.309Z,17.06
2019-06-10T02:10:54.023Z,17.09
2019-06-10T02:13:32.963Z,17.13
2019-06-10T02:16:06.122Z,17.22
2019-06-10T02:18:37.543Z,17.22
2019-06-10T02:21:11.545Z,17.19
2019-06-10T02:23:42.353Z,17.21
2019-06-10T02:26:15.309Z,17.21
2019-06-10T02:28:47.173Z,17.18
2019-06-10T02:31:27.516Z,17.17
2019-06-10T02:33:52.324Z,17.18
2019-06-10T02:36:31.190Z,17.16
2019-06-10T02:38:57.354Z,17.18
2019-06-10T02:41:35.304Z,17.22
2019-06-10T02:44:04.380Z,17.23
2019-06-10T02:46:36.611Z,17.24
2019-06-10T02:49:28.369Z,17.27
2019-06-10T02:51:43.578Z,17.31
2019-06-10T02:54:16.872Z,17.26
2019-06-10T02:56:47.354Z,17.26
2019-06-10T02:59:20.400Z,17.19
2019-06-10T03:01:53.642Z,17.17
2019-06-10T03:04:30.833Z,17.12
2019-06-10T03:06:57.724Z,17.09
2019-06-10T03:09:31.874Z,17.05
2019-06-10T03:12:04.810Z,17.00
2019-06-10T03:14:35.458Z,17.03
2019-06-10T03:17:12.452Z,17.01
2019-06-10T03:19:50.075Z,17.01
2019-06-10T03:22:17.915Z,17.03
2019-06-10T03:24:49.535Z,17.02
2019-06-10T03:27:23.160Z,17.01
2019-06-10T03:29:53.712Z,17.02
2019-06-10T03:32:32.588Z,17.03
2019-06-10T03:34:58.038Z,17.05
2019-06-10T03:37:29.502Z,17.05
2019-06-10T03:40:02.545Z,17.05
2019-06-10T03:42:34.083Z,17.09
2019-06-10T03:45:08.366Z,17.11
2019-06-10T03:47:39.173Z,17.09
2019-06-10T03:50:13.217Z,17.08
2019-06-10T03:52:45.253Z,17.11
2019-06-10T03:55:19.212Z,17.10
2019-06-10T03:57:52.645Z,17.09
2019-06-10T04:00:25.607Z,17.07
2019-06-10T04:02:56.943Z,17.13
2019-06-10T04:05:28.891Z,17.21
2019-06-10T04:08:02.192Z,17.30
2019-06-10T04:10:33.533Z,17.41
2019-06-10T04:13:04.983Z,17.48
2019-06-10T04:15:36.503Z,17.57
2019-06-10T04:18:08.093Z,17.63
2019-06-10T04:20:39.452Z,17.75
2019-06-10T04:23:12.119Z,17.86
2019-06-10T04:25:44.383Z,17.99
2019-06-10T04:28:15.613Z,18.11
2019-06-10T04:30:46.762Z,18.20
2019-06-10T04:33:18.526Z,18.28
2019-06-10T04:35:53.803Z,18.37
2019-06-10T04:38:26.328Z,18.45
2019-06-10T04:40:59.483Z,18.54
2019-06-10T04:43:32.551Z,18.66
2019-06-10T04:46:05.192Z,18.72
2019-06-10T04:48:36.463Z,18.80
2019-06-10T04:51:08.063Z,18.89
2019-06-10T04:53:41.064Z,19.01
2019-06-10T04:56:13.212Z,19.11
2019-06-10T04:58:44.673Z,19.23
2019-06-10T05:01:16.322Z,19.37
2019-06-10T05:03:48.007Z,19.52
2019-06-10T05:06:21.730Z,19.67
2019-06-10T05:08:53.838Z,19.81
2019-06-10T05:11:26.682Z,19.95
2019-06-10T05:13:58.423Z,20.08
2019-06-10T05:16:32.160Z,20.20
2019-06-10T05:19:03.785Z,20.33
2019-06-10T05:21:35.261Z,20.49
2019-06-10T05:24:06.743Z,20.60
2019-06-10T05:26:38.153Z,20.79
2019-06-10T05:29:11.919Z,20.94
2019-06-10T05:31:48.093Z,21.06
2019-06-10T05:34:20.460Z,21.25
2019-06-10T05:36:52.628Z,21.44
2019-06-10T05:39:27.165Z,21.60
2019-06-10T05:41:56.942Z,21.75
2019-06-10T05:44:28.519Z,21.90
2019-06-10T05:47:00.223Z,22.08
2019-06-10T05:49:35.672Z,22.23
2019-06-10T05:52:04.661Z,22.41
2019-06-10T05:54:35.902Z,22.53
2019-06-10T05:57:07.113Z,22.62
2019-06-10T05:59:38.403Z,22.78
2019-06-10T06:02:12.741Z,22.96
2019-06-10T06:04:42.927Z,23.14
2019-06-10T06:07:14.293Z,23.31
2019-06-10T06:09:45.653Z,23.45
2019-06-10T06:12:16.983Z,23.51
2019-06-10T06:14:48.361Z,23.66
2019-06-10T06:17:19.583Z,23.77
2019-06-10T06:19:53.302Z,23.93
2019-06-10T06:25:00.033Z,24.16
2019-06-10T06:27:33.380Z,24.33
2019-06-10T06:30:10.896Z,24.36
2019-06-10T06:32:38.211Z,24.44
2019-06-10T06:35:09.613Z,24.53
2019-06-10T06:37:42.852Z,24.67
2019-06-10T06:40:13.852Z,24.68
2019-06-10T06:42:45.132Z,24.80
2019-06-10T06:45:16.492Z,24.93
2019-06-10T06:47:47.752Z,25.13
2019-06-10T06:50:19.043Z,25.34
2019-06-10T06:53:18.748Z,25.49
2019-06-10T06:55:23.449Z,25.63
2019-06-10T06:57:55.833Z,25.74
2019-06-10T07:00:48.976Z,25.90
2019-06-10T07:03:06.818Z,25.93
2019-06-10T07:05:38.971Z,26.03
2019-06-10T07:08:13.113Z,26.06
2019-06-10T07:10:45.632Z,26.22
2019-06-10T07:13:16.843Z,26.43
2019-06-10T07:15:48.103Z,26.56
2019-06-10T07:18:23.107Z,26.77
2019-06-10T07:20:54.063Z,26.85
2019-06-10T07:23:25.548Z,27.02
2019-06-10T07:25:56.822Z,26.97
2019-06-10T07:28:28.147Z,27.01
2019-06-10T07:30:59.453Z,27.21
2019-06-10T07:33:33.121Z,27.31
2019-06-10T07:36:03.722Z,27.46
2019-06-10T07:38:37.254Z,27.48
2019-06-10T07:41:07.619Z,27.57
2019-06-10T07:43:42.392Z,27.72
2019-06-10T07:46:13.401Z,27.89
2019-06-10T07:48:47.889Z,28.08
2019-06-10T07:51:17.483Z,28.16
2019-06-10T07:53:48.872Z,28.03
2019-06-10T07:56:20.055Z,28.10
2019-06-10T07:58:52.841Z,28.36
2019-06-10T08:01:24.333Z,28.42
2019-06-10T08:06:24.603Z,28.60
2019-06-10T08:08:55.943Z,28.61
2019-06-10T08:11:27.062Z,28.75
2019-06-10T08:13:58.392Z,28.82
2019-06-10T08:16:29.602Z,29.08
2019-06-10T08:19:22.216Z,29.24
2019-06-10T08:21:33.602Z,29.28
2019-06-10T08:24:04.825Z,29.29
2019-06-10T08:26:37.269Z,29.52
2019-06-10T08:29:08.502Z,29.38
2019-06-10T08:31:40.970Z,29.48
2019-06-10T08:34:13.411Z,29.57
2019-06-10T08:36:47.118Z,29.84
2019-06-10T08:39:17.534Z,29.85
2019-06-10T08:41:49.241Z,29.99
2019-06-10T08:44:23.021Z,30.16
2019-06-10T08:46:54.344Z,30.36
2019-06-10T08:49:25.702Z,30.54
2019-06-10T08:51:56.942Z,30.64
2019-06-10T08:54:28.105Z,30.73
2019-06-10T08:56:59.423Z,30.86
2019-06-10T08:59:32.549Z,31.05
2019-06-10T09:02:03.295Z,31.02
2019-06-10T09:04:34.482Z,31.16
2019-06-10T09:07:05.922Z,31.25
2019-06-10T09:09:38.813Z,31.17
2019-06-10T09:12:27.910Z,31.25
2019-06-10T09:14:45.239Z,31.38
2019-06-10T09:17:15.996Z,31.46
2019-06-10T09:19:49.193Z,31.60
2019-06-10T09:22:19.962Z,31.75
2019-06-10T09:24:55.310Z,31.71
2019-06-10T09:27:26.918Z,32.02
2019-06-10T09:29:56.956Z,32.10
2019-06-10T09:32:28.223Z,32.14
2019-06-10T09:34:59.503Z,32.26
2019-06-10T09:37:32.059Z,32.27
2019-06-10T09:40:03.633Z,32.11
2019-06-10T09:42:35.022Z,32.33
2019-06-10T09:45:07.177Z,32.64
2019-06-10T09:47:38.753Z,32.49
2019-06-10T09:50:12.290Z,32.54
2019-06-10T09:52:48.445Z,32.49
2019-06-10T09:55:17.792Z,32.68
2019-06-10T09:57:54.842Z,33.12
2019-06-10T10:00:29.185Z,33.40
2019-06-10T10:02:59.683Z,33.77
2019-06-10T10:05:33.690Z,33.81
2019-06-10T10:08:04.544Z,33.88
2019-06-10T10:10:36.932Z,33.58
2019-06-10T10:13:08.574Z,33.27
2019-06-10T10:15:40.039Z,33.59
2019-06-10T10:18:13.450Z,33.28
2019-06-10T10:20:47.911Z,33.64
2019-06-10T10:23:18.132Z,34.08
2019-06-10T10:25:50.009Z,34.35
2019-06-10T10:28:25.423Z,34.09
2019-06-10T10:30:57.924Z,34.20
2019-06-10T10:33:30.219Z,34.23
2019-06-10T10:36:02.819Z,34.27
2019-06-10T10:38:34.852Z,34.13
2019-06-10T10:41:06.474Z,34.46
2019-06-10T10:43:38.088Z,34.45
2019-06-10T10:46:09.528Z,34.32
2019-06-10T10:48:40.732Z,33.96
2019-06-10T10:51:12.944Z,34.08
2019-06-10T10:53:48.329Z,34.44
2019-06-10T10:56:18.372Z,34.71
2019-06-10T10:58:52.031Z,34.95
2019-06-10T11:01:23.723Z,35.10
2019-06-10T11:03:58.720Z,35.05
2019-06-10T11:06:28.023Z,34.71
2019-06-10T11:08:59.202Z,34.71
2019-06-10T11:11:33.118Z,34.73
2019-06-10T11:14:03.701Z,34.80
2019-06-10T11:16:35.067Z,35.14
2019-06-10T11:19:06.233Z,35.42
2019-06-10T11:21:37.382Z,35.03
2019-06-10T11:24:08.508Z,34.95
2019-06-10T11:26:39.532Z,35.20
2019-06-10T11:29:10.692Z,35.33
2019-06-10T11:31:42.552Z,35.32
2019-06-10T11:34:13.882Z,35.40
2019-06-10T11:36:46.146Z,35.56
2019-06-10T11:39:17.404Z,35.86
2019-06-10T11:41:48.633Z,35.94
2019-06-10T11:44:19.665Z,35.68
2019-06-10T11:46:54.066Z,34.65
2019-06-10T11:49:23.850Z,34.39
2019-06-10T11:51:56.498Z,34.74
2019-06-10T11:54:27.843Z,35.24
2019-06-10T11:56:59.966Z,34.80
2019-06-10T11:59:32.829Z,34.93
2019-06-10T12:02:05.984Z,35.20
2019-06-10T12:04:37.295Z,34.64
2019-06-10T12:07:08.696Z,34.41
2019-06-10T12:09:42.528Z,34.41
2019-06-10T12:12:13.619Z,34.71
2019-06-10T12:14:44.973Z,34.82
2019-06-10T12:17:30.851Z,34.76
2019-06-10T12:19:49.816Z,35.15
2019-06-10T12:22:22.687Z,35.46
2019-06-10T12:25:21.131Z,35.56
2019-06-10T12:27:27.042Z,35.65
2019-06-10T12:29:59.639Z,35.13
2019-06-10T12:32:33.137Z,35.05
2019-06-10T12:35:05.357Z,35.49
2019-06-10T12:37:36.813Z,35.62
2019-06-10T12:40:08.263Z,35.61
2019-06-10T12:42:39.332Z,35.62
2019-06-10T12:45:12.782Z,35.42
2019-06-10T12:47:44.222Z,35.32
2019-06-10T12:50:15.586Z,35.16
2019-06-10T12:52:46.653Z,35.10
2019-06-10T12:55:18.159Z,35.34
2019-06-10T12:57:49.573Z,35.69
2019-06-10T13:00:25.758Z,35.57
2019-06-10T13:02:53.783Z,34.82
2019-06-10T13:05:25.579Z,33.91
2019-06-10T13:07:57.540Z,33.13
2019-06-10T13:10:36.434Z,33.30
2019-06-10T13:13:09.216Z,33.73
2019-06-10T13:15:43.172Z,34.07
2019-06-10T13:18:18.982Z,34.66
2019-06-10T13:20:46.186Z,34.04
2019-06-10T13:23:26.699Z,34.44
2019-06-10T13:25:57.071Z,34.67
2019-06-10T13:28:22.889Z,34.84
2019-06-10T13:30:55.391Z,34.42
2019-06-10T13:33:26.763Z,34.55
2019-06-10T13:35:58.793Z,34.32
2019-06-10T13:38:32.981Z,34.56
2019-06-10T13:41:04.255Z,34.50
2019-06-10T13:43:35.703Z,34.18
2019-06-10T13:46:09.362Z,34.15
2019-06-10T13:48:39.602Z,34.31
2019-06-10T13:51:13.115Z,34.48
2019-06-10T13:53:46.228Z,34.68
2019-06-10T13:56:38.069Z,34.76
2019-06-10T13:58:52.182Z,34.95
2019-06-10T14:01:22.872Z,34.69
2019-06-10T14:03:54.063Z,34.66
2019-06-10T14:06:37.816Z,34.73
2019-06-10T14:08:58.333Z,34.74
2019-06-10T14:11:30.262Z,34.33
2019-06-10T14:14:02.602Z,34.32
2019-06-10T14:16:35.761Z,34.31
2019-06-10T14:19:09.155Z,34.32
2019-06-10T14:21:44.338Z,34.36
2019-06-10T14:24:16.430Z,34.24
2019-06-10T14:26:47.732Z,34.28
2019-06-10T14:29:19.056Z,34.25
2019-06-10T14:31:54.003Z,34.19
2019-06-10T14:34:25.062Z,34.02
2019-06-10T14:36:57.562Z,33.82
2019-06-10T14:39:32.943Z,33.63
2019-06-10T14:42:05.647Z,33.70
2019-06-10T14:44:37.303Z,33.62
2019-06-10T14:47:08.888Z,33.71
2019-06-10T14:49:42.469Z,33.66
2019-06-10T14:52:15.188Z,33.62
2019-06-10T14:54:46.047Z,33.54
2019-06-10T14:57:17.282Z,33.55
2019-06-10T14:59:48.595Z,33.46
2019-06-10T15:02:19.703Z,33.38
2019-06-10T15:04:53.215Z,33.28
2019-06-10T15:07:24.211Z,33.21
2019-06-10T15:09:55.462Z,33.24
2019-06-10T15:12:26.842Z,32.96
2019-06-10T15:14:58.125Z,32.62
2019-06-10T15:17:29.323Z,32.56
2019-06-10T15:20:03.552Z,32.44
2019-06-10T15:22:33.363Z,32.46
2019-06-10T15:25:04.805Z,32.39
2019-06-10T15:27:36.956Z,32.20
2019-06-10T15:30:14.563Z,32.12
2019-06-10T15:32:42.777Z,32.07
2019-06-10T15:35:18.289Z,32.02
2019-06-10T15:37:46.782Z,31.85
2019-06-10T15:40:18.311Z,31.77
2019-06-10T15:42:49.723Z,31.73
2019-06-10T15:45:21.398Z,31.72
2019-06-10T15:47:53.123Z,31.59
2019-06-10T15:50:27.408Z,31.51
2019-06-10T15:52:57.342Z,31.30
2019-06-10T15:55:55.545Z,31.18
2019-06-10T15:58:04.614Z,31.06
2019-06-10T16:00:35.934Z,31.01
2019-06-10T16:03:07.203Z,30.93
2019-06-10T16:05:38.603Z,30.87
2019-06-10T16:08:12.922Z,30.81
2019-06-10T16:10:43.643Z,30.70
2019-06-10T16:13:14.783Z,30.67
2019-06-10T16:15:45.903Z,30.58
2019-06-10T16:18:18.475Z,30.53
2019-06-10T16:20:52.821Z,30.45
2019-06-10T16:23:26.501Z,30.36
2019-06-10T16:25:56.543Z,30.28
2019-06-10T16:28:28.147Z,30.22
2019-06-10T16:30:59.472Z,30.12
2019-06-10T16:33:32.856Z,30.06
2019-06-10T16:36:03.662Z,29.98
2019-06-10T16:38:34.742Z,29.93
2019-06-10T16:41:06.162Z,29.89
2019-06-10T16:43:37.400Z,29.82
2019-06-10T16:46:08.413Z,29.70
2019-06-10T16:48:39.662Z,29.59
2019-06-10T16:51:13.238Z,29.57
2019-06-10T16:53:44.002Z,29.54
2019-06-10T16:56:17.641Z,29.50
2019-06-10T16:58:48.943Z,29.44
2019-06-10T17:01:21.030Z,29.35
2019-06-10T17:03:52.912Z,29.24
2019-06-10T17:06:26.884Z,29.11
2019-06-10T17:08:58.263Z,29.05
2019-06-10T17:11:30.488Z,28.96
2019-06-10T17:14:03.111Z,28.87
2019-06-10T17:16:34.413Z,28.81
2019-06-10T17:19:06.243Z,28.70
2019-06-10T17:21:38.065Z,28.56
2019-06-10T17:24:12.639Z,28.51
2019-06-10T17:26:43.982Z,28.49
2019-06-10T17:29:15.503Z,28.46
2019-06-10T17:31:46.613Z,28.38
2019-06-10T17:34:19.924Z,28.30
2019-06-10T17:36:53.881Z,28.23
2019-06-10T17:39:26.591Z,28.13
2019-06-10T17:41:57.707Z,28.04
2019-06-10T17:44:30.517Z,27.99
2019-06-10T17:47:02.389Z,27.97
2019-06-10T17:49:34.839Z,27.90
2019-06-10T17:52:06.322Z,27.88
2019-06-10T17:54:37.694Z,27.78
2019-06-10T17:57:08.722Z,27.67
2019-06-10T17:59:40.212Z,27.60
2019-06-10T18:02:12.339Z,27.53
2019-06-10T18:04:43.732Z,27.45
2019-06-10T18:07:14.893Z,27.36
2019-06-10T18:09:46.082Z,27.28
2019-06-10T18:12:17.093Z,27.23
2019-06-10T18:14:48.312Z,27.12
2019-06-10T18:17:19.552Z,27.04
2019-06-10T18:19:53.132Z,27.01
2019-06-10T18:22:24.416Z,26.95
2019-06-10T18:24:55.603Z,26.87
2019-06-10T18:27:26.970Z,26.79
2019-06-10T18:29:58.363Z,26.71
2019-06-10T18:32:32.390Z,26.66
2019-06-10T18:35:03.286Z,26.61
2019-06-10T18:37:35.972Z,26.55
2019-06-10T18:40:09.992Z,26.53
2019-06-10T18:42:41.293Z,26.44
2019-06-10T18:45:13.023Z,26.34
2019-06-10T18:47:44.404Z,26.29
2019-06-10T18:50:15.853Z,26.24
2019-06-10T18:52:48.227Z,26.20
2019-06-10T18:55:19.916Z,26.14
2019-06-10T18:57:52.888Z,26.01
2019-06-10T19:00:24.813Z,25.99
2019-06-10T19:03:09.229Z,25.92
2019-06-10T19:05:28.627Z,25.83
2019-06-10T19:08:02.309Z,25.71
2019-06-10T19:10:34.327Z,25.66
2019-06-10T19:13:05.312Z,25.66
2019-06-10T19:15:37.748Z,25.64
2019-06-10T19:18:13.202Z,25.63
2019-06-10T19:20:45.273Z,25.63
2019-06-10T19:23:16.479Z,25.62
2019-06-10T19:25:48.662Z,25.59
2019-06-10T19:28:19.933Z,25.53
2019-06-10T19:30:53.553Z,25.50
2019-06-10T19:33:24.433Z,25.48
2019-06-10T19:35:55.472Z,25.45
2019-06-10T19:38:27.192Z,25.39
2019-06-10T19:40:58.535Z,25.37
2019-06-10T19:43:29.582Z,25.32
2019-06-10T19:46:02.965Z,25.30
2019-06-10T19:48:37.723Z,25.22
2019-06-10T19:51:06.583Z,25.15
2019-06-10T19:53:38.894Z,25.11
2019-06-10T19:56:13.047Z,25.07
2019-06-10T19:58:46.223Z,25.06
2019-06-10T20:01:17.295Z,25.05
2019-06-10T20:03:48.793Z,25.00
2019-06-10T20:06:19.893Z,24.95
2019-06-10T20:08:52.289Z,24.93
2019-06-10T20:11:23.434Z,24.88
2019-06-10T20:13:54.624Z,24.85
2019-06-10T20:16:25.852Z,24.80
2019-06-10T20:18:57.113Z,24.77
2019-06-10T20:21:28.482Z,24.76
2019-06-10T20:23:59.492Z,24.74
2019-06-10T20:26:32.958Z,24.72
2019-06-10T20:29:04.011Z,24.62
2019-06-10T20:31:35.807Z,24.54
2019-06-10T20:34:08.471Z,24.46
2019-06-10T20:36:42.450Z,24.38
2019-06-10T20:39:12.700Z,24.39
2019-06-10T20:41:48.569Z,24.37
2019-06-10T20:44:16.823Z,24.33
2019-06-10T20:46:49.250Z,24.36
2019-06-10T20:49:22.440Z,24.38
2019-06-10T20:52:06.627Z,24.43
2019-06-10T20:54:26.452Z,24.36
2019-06-10T20:56:58.332Z,24.35
2019-06-10T20:59:29.623Z,24.26
2019-06-10T21:02:03.063Z,24.14
2019-06-10T21:04:33.544Z,24.07
2019-06-10T21:07:04.822Z,23.96
2019-06-10T21:09:36.853Z,23.83
2019-06-10T21:12:08.083Z,23.78
2019-06-10T21:14:39.812Z,23.68
2019-06-10T21:17:12.207Z,23.53
2019-06-10T21:19:45.815Z,23.45
2019-06-10T21:22:17.008Z,23.32
2019-06-10T21:24:48.781Z,23.24
2019-06-10T21:27:20.343Z,23.15
2019-06-10T21:29:54.683Z,23.09
2019-06-10T21:32:24.255Z,22.98
2019-06-10T21:34:55.363Z,22.87
2019-06-10T21:37:26.592Z,22.85
2019-06-10T21:39:58.522Z,22.80
2019-06-10T21:42:32.667Z,22.80
2019-06-10T21:45:06.332Z,22.77
2019-06-10T21:47:38.173Z,22.70
2019-06-10T21:50:12.479Z,22.64
2019-06-10T21:52:45.777Z,22.58
2019-06-10T21:55:16.243Z,22.53
2019-06-10T21:57:47.432Z,22.49
2019-06-10T22:00:22.313Z,22.46
2019-06-10T22:02:58.448Z,22.39
2019-06-10T22:05:27.833Z,22.35
2019-06-10T22:07:58.973Z,22.34
2019-06-10T22:10:30.246Z,22.30
2019-06-10T22:13:03.168Z,22.23
2019-06-10T22:15:33.943Z,22.18
2019-06-10T22:18:05.113Z,22.16
2019-06-10T22:20:36.458Z,22.15
2019-06-10T22:23:07.949Z,22.19
2019-06-10T22:25:39.164Z,22.22
2019-06-10T22:28:12.937Z,22.18
2019-06-10T22:30:43.461Z,22.12
2019-06-10T22:33:14.584Z,22.08
2019-06-10T22:35:45.845Z,22.07
2019-06-10T22:38:17.063Z,22.07
2019-06-10T22:40:48.874Z,21.97
2019-06-10T22:43:20.043Z,21.85
2019-06-10T22:45:53.805Z,21.76
2019-06-10T22:48:24.506Z,21.66
2019-06-10T22:50:55.694Z,21.66
2019-06-10T22:53:26.824Z,21.59
2019-06-10T22:55:59.251Z,21.56
2019-06-10T22:58:30.623Z,21.50
2019-06-10T23:01:04.015Z,21.44
2019-06-10T23:03:34.744Z,21.39
2019-06-10T23:06:06.166Z,21.34
2019-06-10T23:08:37.544Z,21.30
2019-06-10T23:11:08.983Z,21.26
2019-06-10T23:13:48.636Z,21.24
2019-06-10T23:16:22.109Z,21.20
2019-06-10T23:18:54.946Z,21.20
2019-06-10T23:21:26.023Z,21.24
2019-06-10T23:23:58.541Z,21.27
2019-06-10T23:26:29.843Z,21.27
2019-06-10T23:29:03.058Z,21.28
2019-06-10T23:31:48.787Z,21.31
2019-06-10T23:34:07.383Z,21.33
2019-06-10T23:36:38.786Z,21.34
2019-06-10T23:39:10.143Z,21.34
2019-06-10T23:41:43.248Z,21.30
2019-06-10T23:44:14.203Z,21.36
2019-06-10T23:46:45.563Z,21.42
2019-06-10T23:49:16.653Z,21.38
2019-06-10T23:51:47.843Z,21.39
2019-06-10T23:54:19.113Z,21.33
2019-06-10T23:56:50.303Z,21.27
2019-06-10T23:59:22.609Z,21.18
